Time,TemperatureF,DewpointF,PressureIn,WindDirection,WindDirectionDegrees,WindSpeedMPH,WindSpeedGustMPH,Humidity,HourlyPrecipIn,Conditions,Clouds,dailyrainin,SolarRadiationWatts/m^2,SoftwareType,DateUTC
2013-04-25 00:03:00,70.9,63.3,30.13,East,91,0.0,0.0,77,0.00,,---,0.00,0.00,VWS V14.01,2013-04-25 04:03:00,
2013-04-25 00:33:00,70.1,63.3,30.12,East,91,0.0,0.0,79,0.00,,---,0.00,0.00,VWS V14.01,2013-04-25 04:33:00,
2013-04-25 01:03:00,69.3,63.2,30.11,East,91,0.0,0.0,81,0.00,,---,0.00,0.00,VWS V14.01,2013-04-25 05:03:00,
2013-04-25 01:33:00,69.0,63.6,30.10,East,91,0.0,0.0,83,0.00,,---,0.00,0.00,VWS V14.01,2013-04-25 05:33:00,
2013-04-25 02:03:00,68.8,63.8,30.09,East,91,0.0,0.0,84,0.00,,---,0.00,0.00,VWS V14.01,2013-04-25 06:03:00,
2013-04-25 02:33:00,68.3,63.6,30.09,East,91,0.0,0.0,85,0.00,,---,0.00,0.00,VWS V14.01,2013-04-25 06:33:00,
2013-04-25 03:03:00,67.9,63.6,30.08,East,91,0.0,0.0,86,0.00,,---,0.00,0.00,VWS V14.01,2013-04-25 07:03:00,
2013-04-25 03:33:00,67.7,63.7,30.07,East,91,0.0,0.0,87,0.00,,---,0.00,0.00,VWS V14.01,2013-04-25 07:33:00,
2013-04-25 04:03:00,68.1,63.4,30.08,East,91,0.0,1.0,85,0.00,,---,0.00,0.00,VWS V14.01,2013-04-25 08:03:00,
2013-04-25 04:33:00,68.4,63.4,30.08,East,91,0.0,1.0,84,0.00,,---,0.00,0.00,VWS V14.01,2013-04-25 08:33:00,
2013-04-25 05:03:00,68.4,63.4,30.08,East,91,0.0,2.0,84,0.00,,---,0.00,0.00,VWS V14.01,2013-04-25 09:03:00,
2013-04-25 05:33:00,68.0,63.0,30.10,East,91,0.0,0.0,84,0.00,,---,0.00,0.00,VWS V14.01,2013-04-25 09:33:00,
2013-04-25 06:03:00,66.8,61.8,30.10,East,91,0.0,0.0,84,0.00,,---,0.00,0.00,VWS V14.01,2013-04-25 10:03:00,
2013-04-25 06:33:00,65.3,61.0,30.11,East,91,0.0,0.0,86,0.00,,---,0.00,0.00,VWS V14.01,2013-04-25 10:33:00,
2013-04-25 07:03:00,64.1,60.5,30.13,East,91,0.0,0.0,88,0.00,,---,0.00,14.00,VWS V14.01,2013-04-25 11:03:00,
2013-04-25 07:33:00,64.0,61.6,30.15,NW,325,0.0,0.0,92,0.00,,---,0.00,35.00,VWS V14.01,2013-04-25 11:33:00,
2013-04-25 08:03:00,65.3,63.5,30.15,NW,325,0.0,0.0,94,0.00,,---,0.00,178.00,VWS V14.01,2013-04-25 12:03:00,
2013-04-25 08:33:00,68.3,65.9,30.15,NW,325,0.0,0.0,92,0.00,,---,0.00,292.00,VWS V14.01,2013-04-25 12:33:00,
2013-04-25 09:03:00,72.4,68.0,30.16,NW,325,0.0,0.0,86,0.00,,---,0.00,413.00,VWS V14.01,2013-04-25 13:03:00,
2013-04-25 09:33:00,77.6,67.9,30.16,ESE,107,0.0,1.0,72,0.00,,---,0.00,432.00,VWS V14.01,2013-04-25 13:33:00,
2013-04-25 10:03:00,79.9,67.1,30.16,East,86,2.0,5.0,65,0.00,,---,0.00,510.00,VWS V14.01,2013-04-25 14:03:00,
2013-04-25 10:33:00,80.9,67.1,30.17,ESE,123,4.0,7.0,63,0.00,,---,0.00,728.00,VWS V14.01,2013-04-25 14:33:00,
2013-04-25 11:03:00,82.5,66.7,30.18,East,84,0.0,6.0,59,0.00,,---,0.00,800.00,VWS V14.01,2013-04-25 15:03:00,
2013-04-25 11:33:00,83.4,65.6,30.17,East,89,0.0,6.0,55,0.00,,---,0.00,758.00,VWS V14.01,2013-04-25 15:33:00,
2013-04-25 12:03:00,84.0,67.1,30.18,East,92,0.0,4.0,57,0.00,,---,0.00,886.00,VWS V14.01,2013-04-25 16:03:00,
2013-04-25 12:33:00,84.4,66.5,30.18,ENE,67,0.0,7.0,55,0.00,,---,0.00,925.00,VWS V14.01,2013-04-25 16:33:00,
2013-04-25 13:03:00,84.9,67.5,30.17,East,98,0.0,7.0,56,0.00,,---,0.00,963.00,VWS V14.01,2013-04-25 17:03:00,
2013-04-25 13:33:00,84.9,66.9,30.18,ESE,121,2.0,6.0,55,0.00,,---,0.00,972.00,VWS V14.01,2013-04-25 17:33:00,
2013-04-25 14:03:00,84.7,66.2,30.18,NNW,338,0.0,7.0,54,0.00,,---,0.00,1009.00,VWS V14.01,2013-04-25 18:03:00,
2013-04-25 14:33:00,84.9,66.9,30.17,East,80,0.0,7.0,55,0.00,,---,0.00,809.00,VWS V14.01,2013-04-25 18:33:00,
2013-04-25 15:03:00,85.6,68.1,30.17,NE,36,0.0,6.0,56,0.00,,---,0.00,918.00,VWS V14.01,2013-04-25 19:03:00,
2013-04-25 15:33:00,84.8,67.9,30.16,NE,45,5.0,7.0,57,0.00,,---,0.00,816.00,VWS V14.01,2013-04-25 19:33:00,
2013-04-25 16:03:00,84.3,67.9,30.15,ESE,111,3.0,7.0,58,0.00,,---,0.00,772.00,VWS V14.01,2013-04-25 20:03:00,
2013-04-25 16:33:00,82.2,66.5,30.14,ENE,68,0.0,9.0,59,0.00,,---,0.00,647.00,VWS V14.01,2013-04-25 20:33:00,
2013-04-25 17:03:00,81.4,66.2,30.14,East,91,0.0,6.0,60,0.00,,---,0.00,601.00,VWS V14.01,2013-04-25 21:03:00,
2013-04-25 17:33:00,81.1,66.9,30.14,East,88,0.0,5.0,62,0.00,,---,0.00,345.00,VWS V14.01,2013-04-25 21:33:00,
2013-04-25 18:03:00,80.7,66.5,30.14,East,100,0.0,6.0,62,0.00,,---,0.00,320.00,VWS V14.01,2013-04-25 22:03:00,
2013-04-25 18:33:00,78.9,66.2,30.15,East,96,0.0,5.0,65,0.00,,---,0.00,244.00,VWS V14.01,2013-04-25 22:33:00,
2013-04-25 19:03:00,77.4,66.0,30.14,ESE,104,0.0,6.0,68,0.00,,---,0.00,60.00,VWS V14.01,2013-04-25 23:03:00,
2013-04-25 19:33:00,75.4,66.2,30.14,East,99,0.0,5.0,73,0.00,,---,0.00,23.00,VWS V14.01,2013-04-25 23:33:00,
2013-04-25 20:03:00,74.2,65.4,30.14,East,100,0.0,5.0,74,0.00,,---,0.00,0.00,VWS V14.01,2013-04-26 00:03:00,
2013-04-25 20:33:00,73.6,65.6,30.16,East,99,0.0,4.0,76,0.00,,---,0.00,0.00,VWS V14.01,2013-04-26 00:33:00,
2013-04-25 21:03:00,73.2,65.2,30.16,East,96,3.0,5.0,76,0.00,,---,0.00,0.00,VWS V14.01,2013-04-26 01:03:00,
2013-04-25 21:33:00,73.0,65.4,30.17,East,96,0.0,5.0,77,0.00,,---,0.00,0.00,VWS V14.01,2013-04-26 01:33:00,
2013-04-25 22:03:00,72.7,65.1,30.18,East,96,0.0,5.0,77,0.00,,---,0.00,0.00,VWS V14.01,2013-04-26 02:03:00,
2013-04-25 22:33:00,72.8,65.2,30.19,East,93,0.0,5.0,77,0.00,,---,0.00,0.00,VWS V14.01,2013-04-26 02:33:00,
2013-04-25 23:03:00,72.7,65.1,30.18,ESE,105,0.0,6.0,77,0.00,,---,0.00,0.00,VWS V14.01,2013-04-26 03:03:00,
2013-04-25 23:33:00,72.5,64.5,30.18,East,98,0.0,5.0,76,0.00,,---,0.00,0.00,VWS V14.01,2013-04-26 03:33:00,